Time;durP1;ratioP1;P1;durP2;ratioP2;P2;SDS_P1;SDS_P2;PMS_P1;PMS_P2;Temp;Humidity;BMP_temperature;BMP_pressure;BME280_temperature;BME280_humidity;BME280_pressure;Samples;Min_cycle;Max_cycle;Signal;HPM_P1;HPM_P2
2023/03/02 00:01:41;;;;;;;11.70;6.90;;;;;;;-1.67;90.65;102420.75;5072113;28;20094;-74
2023/03/02 00:04:11;;;;;;;11.30;6.90;;;;;;;-1.67;90.15;102423.31;5072040;28;20047;-74
2023/03/02 00:06:36;;;;;;;11.68;7.00;;;;;;;-1.71;90.09;102419.72;5072469;28;20020;-75
2023/03/02 00:09:03;;;;;;;12.60;6.97;;;;;;;-1.74;90.70;102423.81;5071330;28;20584;-74
2023/03/02 00:11:30;;;;;;;12.00;7.57;;;;;;;-1.77;91.29;102421.97;5072067;28;20052;-74
2023/03/02 00:13:56;;;;;;;11.80;7.13;;;;;;;-1.87;91.06;102414.59;5072295;28;20086;-74
2023/03/02 00:16:21;;;;;;;11.43;6.85;;;;;;;-1.85;91.43;102428.38;5070289;28;20013;-74
2023/03/02 00:18:46;;;;;;;12.20;7.22;;;;;;;-1.95;91.15;102426.13;5072143;28;20078;-74
2023/03/02 00:21:12;;;;;;;13.88;7.07;;;;;;;-1.97;92.30;102430.28;5071570;28;20369;-74
2023/03/02 00:23:37;;;;;;;11.02;6.88;;;;;;;-2.02;91.65;102424.06;5072624;28;20028;-75
2023/03/02 00:26:04;;;;;;;11.35;7.22;;;;;;;-2.05;91.71;102429.88;5076190;28;20020;-74
2023/03/02 00:28:29;;;;;;;13.27;6.72;;;;;;;-2.11;92.87;102419.31;5075778;28;20421;-74
2023/03/02 00:30:54;;;;;;;13.45;7.45;;;;;;;-2.14;92.70;102425.13;5075275;28;20111;-75
2023/03/02 00:33:20;;;;;;;12.93;7.68;;;;;;;-2.22;92.93;102413.66;5074701;28;20038;-74
2023/03/02 00:35:46;;;;;;;12.43;7.30;;;;;;;-2.19;93.25;102426.59;5075605;28;20016;-74
2023/03/02 00:38:11;;;;;;;15.10;7.47;;;;;;;-2.20;93.87;102426.50;5074395;28;20023;-75
2023/03/02 00:40:37;;;;;;;15.55;7.82;;;;;;;-2.24;93.84;102422.00;5075583;28;20028;-75
2023/03/02 00:43:03;;;;;;;11.93;7.15;;;;;;;-2.26;94.11;102424.47;5075313;28;20028;-74
2023/03/02 00:45:28;;;;;;;12.18;7.07;;;;;;;-2.20;94.39;102424.81;5075741;28;20031;-74
2023/03/02 00:47:54;;;;;;;11.18;6.85;;;;;;;-2.19;94.18;102429.13;5075825;28;20451;-74
2023/03/02 00:50:19;;;;;;;11.82;6.88;;;;;;;-2.20;94.83;102432.47;5074596;28;20021;-74
2023/03/02 00:52:44;;;;;;;11.80;7.20;;;;;;;-2.34;93.84;102412.97;5074688;28;20359;-74
2023/03/02 00:55:10;;;;;;;13.38;7.30;;;;;;;-2.26;94.49;102434.69;5075407;28;20401;-74
2023/03/02 00:57:35;;;;;;;13.38;7.15;;;;;;;-2.47;94.06;102392.69;5075477;28;20036;-74
2023/03/02 01:00:00;;;;;;;12.18;6.97;;;;;;;-2.26;94.21;102423.59;5074596;28;20048;-74
2023/03/02 01:02:26;;;;;;;12.15;7.53;;;;;;;-2.28;93.65;102426.09;5074920;28;20032;-74
2023/03/02 01:04:54;;;;;;;13.05;7.03;;;;;;;-2.43;93.97;102395.47;5075110;28;20021;-75
2023/03/02 01:07:21;;;;;;;11.95;6.85;;;;;;;-2.30;94.41;102417.44;5074210;28;20028;-74
2023/03/02 01:09:49;;;;;;;12.13;7.47;;;;;;;-2.27;94.23;102415.06;5074777;28;20106;-74
2023/03/02 01:12:15;;;;;;;14.05;6.93;;;;;;;-2.29;94.24;102408.09;5073495;28;20024;-74
2023/03/02 01:14:45;;;;;;;10.90;6.65;;;;;;;-2.22;94.46;102416.19;5073447;28;20036;-75
2023/03/02 01:17:11;;;;;;;11.88;7.25;;;;;;;-2.24;93.54;102409.25;5074181;28;20017;-75
2023/03/02 01:19:37;;;;;;;11.57;7.57;;;;;;;-2.27;94.28;102396.31;5073060;28;20028;-74
2023/03/02 01:22:03;;;;;;;13.02;7.47;;;;;;;-2.21;94.64;102401.75;5074040;28;20027;-74
2023/03/02 01:24:28;;;;;;;12.70;6.93;;;;;;;-2.23;94.00;102406.75;5073500;28;20024;-74
2023/03/02 01:26:54;;;;;;;11.88;6.90;;;;;;;-2.23;93.95;102400.78;5074115;28;20021;-74
2023/03/02 01:29:19;;;;;;;17.13;6.72;;;;;;;-2.18;94.26;102400.22;5074447;28;20589;-74
2023/03/02 01:31:44;;;;;;;13.10;7.10;;;;;;;-2.15;94.10;102402.06;5074904;28;20438;-74
2023/03/02 01:34:10;;;;;;;11.45;7.13;;;;;;;-2.12;93.83;102398.00;5073271;28;20029;-74
2023/03/02 01:36:35;;;;;;;12.15;7.05;;;;;;;-2.18;94.27;102382.34;5072131;28;20032;-74
2023/03/02 01:39:01;;;;;;;16.05;7.72;;;;;;;-2.09;94.38;102392.19;5074618;28;20111;-74
2023/03/02 01:41:26;;;;;;;16.23;6.75;;;;;;;-2.08;93.72;102386.25;5073336;28;20395;-74
2023/03/02 01:43:52;;;;;;;10.88;6.68;;;;;;;-2.11;93.93;102383.53;5065431;28;20020;-75
2023/03/02 01:46:21;;;;;;;12.55;7.22;;;;;;;-2.10;94.34;102386.97;5074565;28;20130;-74
2023/03/02 01:48:57;;;;;;;11.60;7.07;;;;;;;-2.14;93.82;102394.47;5073524;28;20025;-74
2023/03/02 01:51:29;;;;;;;13.63;7.15;;;;;;;-2.19;94.25;102385.69;5074332;28;20098;-74
2023/03/02 01:54:00;;;;;;;13.38;6.63;;;;;;;-2.18;94.72;102389.13;5074105;28;20038;-74
2023/03/02 01:56:33;;;;;;;17.75;7.00;;;;;;;-2.20;94.54;102391.59;5073553;28;20029;-75
2023/03/02 01:59:04;;;;;;;12.85;7.30;;;;;;;-2.25;94.73;102376.84;5073741;28;20040;-74
2023/03/02 02:01:33;;;;;;;13.93;7.80;;;;;;;-2.19;94.91;102382.25;5073543;28;20070;-74
2023/03/02 02:04:00;;;;;;;14.02;7.80;;;;;;;-2.20;95.24;102383.91;5074204;28;20024;-74
2023/03/02 02:06:37;;;;;;;15.15;8.40;;;;;;;-2.20;95.46;102380.50;5073907;28;20035;-74
2023/03/02 02:09:07;;;;;;;11.52;7.53;;;;;;;-2.22;95.55;102377.00;5073448;28;20056;-75
2023/03/02 02:11:33;;;;;;;15.05;8.20;;;;;;;-2.19;95.28;102375.47;5074390;28;20024;-74
2023/03/02 02:13:59;;;;;;;14.52;8.02;;;;;;;-2.17;95.80;102381.53;5073199;28;20089;-75
2023/03/02 02:16:26;;;;;;;13.65;7.57;;;;;;;-2.21;95.75;102371.97;5072738;28;20032;-74
2023/03/02 02:18:51;;;;;;;13.80;8.00;;;;;;;-2.18;95.82;102353.38;5074046;28;20068;-74
2023/03/02 02:21:18;;;;;;;14.10;7.65;;;;;;;-2.18;95.56;102353.38;5073304;28;20064;-74
2023/03/02 02:24:24;;;;;;;14.15;8.15;;;;;;;-2.13;96.19;102360.47;5072982;28;20104;-75
2023/03/02 02:26:53;;;;;;;14.52;8.13;;;;;;;-2.17;96.07;102350.00;5073112;28;20428;-74
2023/03/02 02:29:24;;;;;;;16.58;9.13;;;;;;;-2.10;96.72;102369.09;5072795;28;20024;-74
2023/03/02 02:31:56;;;;;;;15.00;9.20;;;;;;;-2.18;96.62;102353.38;5071688;28;20035;-74
2023/03/02 02:34:24;;;;;;;13.80;8.45;;;;;;;-2.13;96.72;102362.13;5073198;28;20376;-75
2023/03/02 02:36:53;;;;;;;15.32;8.40;;;;;;;-2.17;97.17;102368.75;5072365;28;20481;-75
2023/03/02 02:39:27;;;;;;;14.32;8.52;;;;;;;-2.19;97.42;102355.03;5071756;28;20032;-74
2023/03/02 02:41:57;;;;;;;20.20;9.27;;;;;;;-2.21;97.68;102350.66;5071866;28;20388;-74
2023/03/02 02:44:22;;;;;;;15.32;9.13;;;;;;;-2.28;97.35;102354.56;5070774;28;20265;-75
2023/03/02 02:46:47;;;;;;;15.68;9.00;;;;;;;-2.28;98.44;102349.44;5072234;28;20132;-74
2023/03/02 02:49:35;;;;;;;14.95;9.07;;;;;;;-2.33;98.11;102348.31;5071093;28;20074;-74
2023/03/02 02:52:02;;;;;;;13.52;8.27;;;;;;;-2.41;98.32;102341.94;5070611;28;20036;-74
2023/03/02 02:54:30;;;;;;;17.10;8.60;;;;;;;-2.40;99.36;102348.78;5072978;28;20032;-74
2023/03/02 02:56:57;;;;;;;14.82;8.85;;;;;;;-2.60;99.33;102319.63;5072889;28;20017;-74
2023/03/02 02:59:34;;;;;;;16.88;9.18;;;;;;;-2.41;99.54;102350.47;5072045;28;20060;-74
2023/03/02 03:02:00;;;;;;;15.30;9.73;;;;;;;-2.42;99.76;102350.38;5073271;28;20036;-74
2023/03/02 03:04:30;;;;;;;15.18;8.98;;;;;;;-2.43;99.94;102352.03;5072644;28;20115;-74
2023/03/02 03:07:02;;;;;;;17.15;9.88;;;;;;;-2.43;100.00;102358.84;5072501;28;20052;-74
2023/03/02 03:09:29;;;;;;;19.80;10.32;;;;;;;-2.48;100.00;102355.19;5072148;28;20510;-74
2023/03/02 03:12:07;;;;;;;17.58;11.00;;;;;;;-2.46;100.00;102358.66;5072080;28;20024;-74
2023/03/02 03:14:35;;;;;;;21.38;10.82;;;;;;;-2.47;100.00;102362.91;5072944;28;20028;-74
2023/03/02 03:17:11;;;;;;;19.10;11.10;;;;;;;-2.45;100.00;102350.22;5072997;28;20089;-74
2023/03/02 03:19:38;;;;;;;22.60;12.13;;;;;;;-2.48;100.00;102345.84;5071797;28;20541;-74
2023/03/02 03:22:03;;;;;;;21.85;12.30;;;;;;;-2.50;100.00;102343.97;5072285;28;20078;-74
2023/03/02 03:24:31;;;;;;;22.50;12.68;;;;;;;-2.47;100.00;102349.25;5070673;28;20032;-74
2023/03/02 03:26:58;;;;;;;23.55;14.48;;;;;;;-2.51;100.00;102345.66;5071782;28;20471;-74
2023/03/02 03:29:26;;;;;;;26.90;14.15;;;;;;;-2.50;100.00;102349.09;5075894;28;20081;-75
2023/03/02 03:31:53;;;;;;;30.35;14.50;;;;;;;-2.53;100.00;102343.81;5092881;28;20024;-74
2023/03/02 03:34:19;;;;;;;28.65;14.60;;;;;;;-2.56;100.00;102338.53;5077651;28;20020;-74
2023/03/02 03:36:46;;;;;;;29.40;15.75;;;;;;;-2.60;100.00;102340.94;5092691;28;20024;-74
2023/03/02 03:39:13;;;;;;;32.10;17.10;;;;;;;-2.63;100.00;102330.56;5087681;28;20036;-74
2023/03/02 03:41:39;;;;;;;30.55;15.82;;;;;;;-2.63;100.00;102335.66;5072207;28;20020;-74
2023/03/02 03:44:05;;;;;;;32.72;16.40;;;;;;;-2.63;100.00;102334.78;5079855;28;20027;-74
2023/03/02 03:46:30;;;;;;;34.17;16.85;;;;;;;-2.65;100.00;102334.72;5088085;28;20077;-74
2023/03/02 03:48:59;;;;;;;32.92;17.05;;;;;;;-2.69;100.00;102335.31;5076215;28;20115;-74
2023/03/02 03:51:24;;;;;;;38.55;18.25;;;;;;;-2.68;100.00;102342.22;5072081;28;20024;-74
2023/03/02 03:53:59;;;;;;;35.15;17.88;;;;;;;-2.68;100.00;102347.31;5083951;28;20021;-74
2023/03/02 03:56:26;;;;;;;37.78;18.50;;;;;;;-2.65;100.00;102344.03;5085835;28;20471;-74
2023/03/02 03:59:05;;;;;;;37.80;18.58;;;;;;;-2.67;100.00;102345.63;5065677;28;20047;-74
2023/03/02 04:01:45;;;;;;;40.63;19.40;;;;;;;-2.77;100.00;102330.63;5084618;28;20055;-74
2023/03/02 04:04:21;;;;;;;38.72;19.55;;;;;;;-2.66;100.00;102348.25;5086169;28;20111;-74
2023/03/02 04:06:46;;;;;;;40.92;20.48;;;;;;;-2.67;100.00;102348.19;5074913;28;20027;-74
2023/03/02 04:09:14;;;;;;;37.40;20.55;;;;;;;-2.68;100.00;102343.84;5085153;28;20035;-74
2023/03/02 04:11:41;;;;;;;42.45;21.10;;;;;;;-2.68;100.00;102352.41;5086765;28;20035;-74
2023/03/02 04:14:08;;;;;;;43.08;21.88;;;;;;;-2.71;100.00;102347.16;5086587;28;20110;-74
2023/03/02 04:16:34;;;;;;;45.17;21.77;;;;;;;-2.70;100.00;102342.91;5084846;28;20031;-74
2023/03/02 04:19:00;;;;;;;45.63;22.20;;;;;;;-2.74;100.00;102339.31;5081202;28;20183;-74
2023/03/02 04:21:26;;;;;;;45.95;21.77;;;;;;;-2.70;100.00;102348.88;5081856;28;20131;-74
2023/03/02 04:23:51;;;;;;;47.28;22.48;;;;;;;-2.78;100.00;102337.41;5082444;28;20386;-74
2023/03/02 04:26:17;;;;;;;40.30;21.08;;;;;;;-2.78;100.00;102345.06;5082817;28;20037;-74
2023/03/02 04:28:43;;;;;;;48.85;23.00;;;;;;;-2.80;100.00;102346.63;5092736;28;20027;-74
2023/03/02 04:31:08;;;;;;;48.83;23.67;;;;;;;-2.80;100.00;102353.41;5081085;28;20059;-74
2023/03/02 04:33:33;;;;;;;48.15;22.98;;;;;;;-2.88;100.00;102342.75;5078754;28;20021;-75
2023/03/02 04:35:59;;;;;;;47.00;23.02;;;;;;;-2.87;100.00;102353.06;5087510;28;20108;-74
2023/03/02 04:38:28;;;;;;;48.33;23.10;;;;;;;-2.96;100.00;102334.69;5075256;28;20048;-74
2023/03/02 04:40:55;;;;;;;50.13;23.50;;;;;;;-3.00;100.00;102337.88;5075882;28;20028;-74
2023/03/02 04:43:21;;;;;;;50.92;23.17;;;;;;;-2.99;100.00;102341.31;5083106;28;20039;-74
2023/03/02 04:45:46;;;;;;;50.25;23.38;;;;;;;-2.96;100.00;102347.44;5090776;28;20020;-75
2023/03/02 04:48:12;;;;;;;50.10;23.83;;;;;;;-2.96;100.00;102338.94;5095908;28;20035;-74
2023/03/02 04:50:37;;;;;;;46.70;22.73;;;;;;;-3.08;100.00;102318.69;5079291;28;20052;-74
2023/03/02 04:53:03;;;;;;;49.75;23.77;;;;;;;-2.95;100.00;102343.22;5075515;28;20035;-74
2023/03/02 04:55:28;;;;;;;54.05;25.23;;;;;;;-2.93;100.00;102349.31;5077649;28;20028;-74
2023/03/02 04:57:53;;;;;;;48.10;22.08;;;;;;;-2.96;100.00;102344.03;5084792;28;20519;-76
2023/03/02 05:00:19;;;;;;;47.35;22.02;;;;;;;-3.01;100.00;102337.78;5092498;28;20035;-74
2023/03/02 05:02:45;;;;;;;46.08;22.90;;;;;;;-2.99;100.00;102337.06;5080183;28;20072;-74
2023/03/02 05:05:16;;;;;;;51.88;24.17;;;;;;;-2.96;100.00;102349.13;5091968;28;20109;-74
2023/03/02 05:07:41;;;;;;;49.65;23.30;;;;;;;-3.06;100.00;102343.50;5084904;28;20103;-75
2023/03/02 05:10:07;;;;;;;51.22;23.50;;;;;;;-3.07;100.00;102356.19;5095444;28;20496;-75
2023/03/02 05:12:53;;;;;;;49.15;22.65;;;;;;;-3.11;100.00;102354.25;5094468;28;20520;-74
2023/03/02 05:15:18;;;;;;;47.83;22.60;;;;;;;-3.10;100.00;102351.78;5095491;28;20031;-74
2023/03/02 05:17:49;;;;;;;50.90;23.85;;;;;;;-3.16;100.00;102346.34;5094917;28;20089;-74
2023/03/02 05:20:15;;;;;;;48.03;23.02;;;;;;;-3.16;100.00;102342.91;5086251;28;20036;-74
2023/03/02 05:22:41;;;;;;;47.38;23.10;;;;;;;-3.14;100.00;102354.06;5091960;28;20107;-74
2023/03/02 05:25:06;;;;;;;50.03;22.95;;;;;;;-3.15;100.00;102354.88;5084904;28;20408;-74
2023/03/02 05:27:32;;;;;;;52.15;23.02;;;;;;;-3.18;100.00;102350.47;5094638;28;20425;-74
2023/03/02 05:29:57;;;;;;;49.10;23.10;;;;;;;-3.13;100.00;102351.63;5095163;28;20084;-74
2023/03/02 05:32:22;;;;;;;51.05;23.48;;;;;;;-3.14;100.00;102349.88;5088153;28;20479;-74
2023/03/02 05:34:48;;;;;;;48.78;23.13;;;;;;;-3.10;100.00;102351.78;5086562;28;20038;-74
2023/03/02 05:37:13;;;;;;;49.80;23.80;;;;;;;-3.10;100.00;102362.00;5095048;28;20017;-74
2023/03/02 05:39:38;;;;;;;50.30;22.70;;;;;;;-3.17;100.00;102349.69;5086772;28;20036;-74
2023/03/02 05:42:04;;;;;;;47.85;21.95;;;;;;;-3.19;100.00;102346.16;5094604;28;20108;-74
2023/03/02 05:44:30;;;;;;;50.08;22.02;;;;;;;-3.19;100.00;102356.38;5094200;28;20482;-74
2023/03/02 05:46:55;;;;;;;48.10;22.17;;;;;;;-3.30;100.00;102344.69;5094158;28;20032;-74
2023/03/02 05:49:20;;;;;;;51.22;23.98;;;;;;;-3.30;100.00;102345.56;5094641;28;20016;-74
2023/03/02 05:51:46;;;;;;;52.83;23.05;;;;;;;-3.27;100.00;102359.28;5094524;28;20020;-74
2023/03/02 05:54:11;;;;;;;49.15;22.85;;;;;;;-3.33;100.00;102357.28;5093873;28;20073;-74
2023/03/02 05:56:39;;;;;;;53.63;24.23;;;;;;;-3.30;100.00;102347.25;5081576;28;20058;-74
2023/03/02 05:59:04;;;;;;;53.38;24.70;;;;;;;-3.26;100.00;102353.41;5093965;28;20712;-74
2023/03/02 06:01:30;;;;;;;49.25;24.15;;;;;;;-3.29;100.00;102356.66;5091446;28;20024;-74
2023/03/02 06:03:55;;;;;;;54.22;24.08;;;;;;;-3.30;100.00;102347.25;5074036;28;20029;-74
2023/03/02 06:06:20;;;;;;;54.83;24.50;;;;;;;-3.32;100.00;102346.28;5077028;28;20111;-74
2023/03/02 06:08:46;;;;;;;53.97;24.23;;;;;;;-3.28;100.00;102350.75;5074883;28;20033;-74
2023/03/02 06:11:11;;;;;;;49.25;23.50;;;;;;;-3.29;100.00;102338.78;5079514;28;20099;-74
2023/03/02 06:13:37;;;;;;;58.10;25.67;;;;;;;-3.28;100.00;102340.53;5077489;28;20020;-74
2023/03/02 06:16:03;;;;;;;57.17;25.15;;;;;;;-3.29;100.00;102346.44;5078930;28;20028;-74
2023/03/02 06:18:29;;;;;;;55.80;25.13;;;;;;;-3.27;100.00;102346.50;5079158;28;20028;-74
2023/03/02 06:20:54;;;;;;;56.92;27.20;;;;;;;-3.27;100.00;102351.63;5086234;28;20101;-74
2023/03/02 06:23:19;;;;;;;63.20;27.42;;;;;;;-3.32;100.00;102347.16;5090936;28;20024;-74
2023/03/02 06:25:47;;;;;;;63.67;26.58;;;;;;;-3.26;100.00;102349.16;5075360;28;20024;-74
2023/03/02 06:28:14;;;;;;;63.78;27.83;;;;;;;-3.24;100.00;102356.91;5091165;28;20028;-74
2023/03/02 06:30:40;;;;;;;59.45;27.15;;;;;;;-3.23;100.00;102356.13;5086239;28;20030;-74
2023/03/02 06:33:05;;;;;;;62.88;26.73;;;;;;;-3.17;100.00;102361.53;5077443;28;20021;-74
2023/03/02 06:35:30;;;;;;;66.75;28.13;;;;;;;-3.15;100.00;102362.53;5090559;28;20387;-74
2023/03/02 06:37:56;;;;;;;68.63;27.30;;;;;;;-3.16;100.00;102356.56;5087218;28;20091;-74
2023/03/02 06:40:24;;;;;;;66.32;27.05;;;;;;;-3.16;100.00;102354.00;5093693;28;20505;-74
2023/03/02 06:42:49;;;;;;;65.97;28.35;;;;;;;-3.13;100.00;102368.59;5092531;28;20023;-74
2023/03/02 06:45:15;;;;;;;62.85;27.15;;;;;;;-3.15;100.00;102365.94;5093633;28;20024;-74
2023/03/02 06:47:40;;;;;;;69.10;27.85;;;;;;;-3.15;100.00;102363.41;5082019;28;20101;-74
2023/03/02 06:50:06;;;;;;;72.22;28.33;;;;;;;-3.09;100.00;102373.09;5088281;28;20136;-74
2023/03/02 06:52:31;;;;;;;65.70;28.42;;;;;;;-3.08;100.00;102372.28;5092838;28;20077;-75
2023/03/02 06:54:56;;;;;;;69.95;28.20;;;;;;;-3.03;100.00;102372.56;5093545;28;20024;-74
2023/03/02 06:57:22;;;;;;;72.65;29.27;;;;;;;-3.00;100.00;102372.72;5092635;28;20039;-74
2023/03/02 06:59:48;;;;;;;72.03;28.77;;;;;;;-3.01;100.00;102361.63;5092915;28;20063;-74
2023/03/02 07:02:13;;;;;;;61.20;27.88;;;;;;;-2.95;100.00;102366.19;5093247;28;20397;-74
2023/03/02 07:04:38;;;;;;;70.93;31.20;;;;;;;-2.87;100.00;102370.06;5080411;28;20024;-74
2023/03/02 07:07:04;;;;;;;67.45;29.08;;;;;;;-2.80;100.00;102378.94;5093257;28;20119;-75
2023/03/02 07:09:32;;;;;;;69.57;28.95;;;;;;;-2.76;100.00;102378.31;5092715;28;20485;-74
2023/03/02 07:11:58;;;;;;;70.05;29.70;;;;;;;-2.84;100.00;102347.28;5092734;28;20348;-74
2023/03/02 07:14:23;;;;;;;69.63;27.88;;;;;;;-2.65;100.00;102373.00;5092842;28;20085;-74
2023/03/02 07:16:48;;;;;;;63.85;28.67;;;;;;;-2.61;100.00;102380.03;5092589;28;20028;-74
2023/03/02 07:19:13;;;;;;;72.07;29.15;;;;;;;-2.55;100.00;102373.47;5092304;28;20020;-74
2023/03/02 07:21:39;;;;;;;67.28;28.00;;;;;;;-2.51;100.00;102383.09;5081300;28;20084;-74
2023/03/02 07:24:07;;;;;;;63.35;27.55;;;;;;;-2.50;100.00;102369.53;5092968;28;20478;-74
2023/03/02 07:26:33;;;;;;;69.85;29.45;;;;;;;-2.41;100.00;102387.91;5080205;28;20035;-74
2023/03/02 07:28:58;;;;;;;67.68;27.77;;;;;;;-2.38;100.00;102388.94;5082863;28;20033;-74
2023/03/02 07:31:24;;;;;;;73.28;30.48;;;;;;;-2.37;100.00;102374.50;5086682;28;20138;-74
2023/03/02 07:33:49;;;;;;;66.75;27.95;;;;;;;-2.27;100.00;102388.63;5074823;28;20016;-74
2023/03/02 07:36:15;;;;;;;62.40;28.05;;;;;;;-2.20;100.00;102388.16;5079659;28;20023;-74
2023/03/02 07:38:42;;;;;;;62.67;29.15;;;;;;;-2.12;100.00;102384.34;5073684;28;20031;-75
2023/03/02 07:41:08;;;;;;;64.57;28.80;;;;;;;-2.05;100.00;102383.00;5083053;28;20533;-74
2023/03/02 07:43:35;;;;;;;57.80;25.35;;;;;;;-2.03;100.00;102371.16;5077626;28;20472;-76
2023/03/02 07:46:01;;;;;;;64.40;27.20;;;;;;;-1.93;100.00;102381.97;5067775;28;20379;-75
2023/03/02 07:48:26;;;;;;;65.82;27.63;;;;;;;-1.91;100.00;102364.13;5085815;28;20133;-75
2023/03/02 07:50:57;;;;;;;64.68;27.27;;;;;;;-1.84;100.00;102373.88;5081567;28;20539;-74
2023/03/02 07:53:22;;;;;;;65.35;26.85;;;;;;;-1.80;100.00;102373.25;5082610;28;20114;-75
2023/03/02 07:55:47;;;;;;;64.18;27.35;;;;;;;-1.80;100.00;102362.13;5077401;28;20190;-75
2023/03/02 07:58:12;;;;;;;59.35;25.80;;;;;;;-1.62;100.00;102383.53;5092158;28;20056;-75
2023/03/02 08:00:38;;;;;;;58.13;25.70;;;;;;;-1.55;100.00;102387.28;5091578;28;20031;-75
2023/03/02 08:03:03;;;;;;;57.15;23.90;;;;;;;-1.50;100.00;102373.06;5092756;28;20458;-74
2023/03/02 08:05:29;;;;;;;54.97;24.88;;;;;;;-1.46;100.00;102386.06;5092175;28;20055;-74
2023/03/02 08:07:54;;;;;;;55.25;25.30;;;;;;;-1.36;100.00;102382.28;5080864;28;20085;-74
2023/03/02 08:10:22;;;;;;;58.42;25.20;;;;;;;-1.27;100.00;102379.31;5092693;28;20107;-74
2023/03/02 08:12:47;;;;;;;49.38;22.83;;;;;;;-1.24;100.00;102370.09;5076884;28;20033;-74
2023/03/02 08:15:13;;;;;;;54.92;23.58;;;;;;;-1.15;100.00;102381.56;5091747;28;20493;-75
2023/03/02 08:17:38;;;;;;;51.80;23.63;;;;;;;-1.10;100.00;102375.88;5090316;28;20035;-75
2023/03/02 08:20:04;;;;;;;52.55;22.35;;;;;;;-0.98;100.00;102375.59;5066649;28;20074;-75
2023/03/02 08:22:29;;;;;;;52.13;23.63;;;;;;;-0.92;100.00;102373.31;5067582;28;20388;-76
2023/03/02 08:24:55;;;;;;;45.88;22.73;;;;;;;-0.90;100.00;102371.72;5089899;28;20012;-75
2023/03/02 08:27:20;;;;;;;51.78;23.25;;;;;;;-0.81;100.00;102373.84;5081177;28;20024;-75
2023/03/02 08:29:46;;;;;;;47.47;23.10;;;;;;;-0.79;100.00;102364.53;5086992;28;20024;-75
2023/03/02 08:32:11;;;;;;;45.47;22.25;;;;;;;-0.69;100.00;102386.34;5084905;28;20017;-75
2023/03/02 08:34:36;;;;;;;45.03;20.70;;;;;;;-0.61;100.00;102367.09;5077218;28;20133;-75
2023/03/02 08:37:02;;;;;;;42.95;20.63;;;;;;;-0.55;100.00;102369.94;5070034;28;20035;-74
2023/03/02 08:39:29;;;;;;;44.08;20.40;;;;;;;-0.47;100.00;102368.59;5067725;28;20502;-75
2023/03/02 08:41:54;;;;;;;43.60;20.63;;;;;;;-0.38;100.00;102373.28;5082027;28;20364;-75
2023/03/02 08:44:21;;;;;;;45.58;21.45;;;;;;;-0.32;100.00;102368.44;5091847;28;20027;-74
2023/03/02 08:46:47;;;;;;;44.75;21.65;;;;;;;-0.25;100.00;102378.16;5092449;28;20531;-75
2023/03/02 08:49:13;;;;;;;45.05;19.75;;;;;;;-0.24;100.00;102375.66;5089026;28;20086;-75
2023/03/02 08:51:38;;;;;;;42.60;20.50;;;;;;;-0.11;100.00;102376.19;5076547;28;20032;-75
2023/03/02 08:54:04;;;;;;;40.70;18.80;;;;;;;-0.03;100.00;102372.31;5091836;28;20027;-76
2023/03/02 08:56:32;;;;;;;39.03;17.88;;;;;;;0.06;100.00;102367.56;5094903;28;20021;-75
2023/03/02 08:59:04;;;;;;;39.17;18.52;;;;;;;0.12;100.00;102366.97;5095426;28;20044;-75
2023/03/02 09:01:31;;;;;;;40.20;17.73;;;;;;;0.18;100.00;102370.66;5086151;28;20024;-75
2023/03/02 09:04:00;;;;;;;35.00;17.63;;;;;;;0.28;99.66;102363.38;5082525;28;20036;-75
2023/03/02 09:06:28;;;;;;;41.83;19.65;;;;;;;0.39;98.55;102357.00;5067674;28;20016;-75
2023/03/02 09:08:54;;;;;;;33.08;17.33;;;;;;;0.41;97.56;102346.00;5095481;28;20028;-74
2023/03/02 09:11:19;;;;;;;35.95;17.50;;;;;;;0.52;98.17;102353.25;5075712;28;20012;-74
2023/03/02 09:13:44;;;;;;;35.75;17.77;;;;;;;0.58;96.13;102349.25;5074936;28;20028;-75
2023/03/02 09:16:11;;;;;;;38.97;17.38;;;;;;;0.66;96.06;102342.78;5070964;28;20119;-74
2023/03/02 09:18:37;;;;;;;42.13;18.08;;;;;;;0.82;96.09;102340.84;5073512;28;20539;-74
2023/03/02 09:21:02;;;;;;;36.30;16.65;;;;;;;0.98;94.12;102353.47;5074600;28;20132;-75
2023/03/02 09:23:28;;;;;;;34.85;17.55;;;;;;;1.01;96.24;102351.00;5073925;28;20060;-74
2023/03/02 09:25:54;;;;;;;32.65;16.83;;;;;;;1.17;95.03;102348.22;5074573;28;20047;-74
2023/03/02 09:28:23;;;;;;;32.30;16.35;;;;;;;1.25;92.34;102342.53;5074619;28;20452;-76
2023/03/02 09:30:53;;;;;;;32.47;16.48;;;;;;;1.39;91.09;102339.66;5072079;28;20521;-75
2023/03/02 09:33:19;;;;;;;34.15;16.95;;;;;;;1.51;89.16;102349.53;5073697;28;20456;-75
2023/03/02 09:35:46;;;;;;;32.58;16.70;;;;;;;1.60;87.93;102346.41;5089809;28;20021;-75
2023/03/02 09:38:15;;;;;;;32.20;17.17;;;;;;;1.67;nan;102345.84;5075196;28;20064;-75
2023/03/02 09:40:57;;;;;;;33.13;16.10;;;;;;;1.80;86.33;102348.03;5091893;28;20463;-75
2023/03/02 09:43:52;;;;;;;31.90;15.85;;;;;;;1.95;86.24;102349.41;5079218;28;20033;-75
2023/03/02 09:46:37;;;;;;;28.92;15.40;;;;;;;2.03;83.33;102348.88;5049662;28;20040;-76
2023/03/02 09:49:21;;;;;;;31.27;15.63;;;;;;;2.11;84.67;102350.00;5078336;28;20020;-75
2023/03/02 09:51:56;;;;;;;29.52;14.95;;;;;;;2.19;83.57;102342.56;5085250;28;20037;-74
2023/03/02 09:54:24;;;;;;;27.42;14.80;;;;;;;2.26;81.17;102338.50;5092716;28;20020;-76
2023/03/02 09:56:54;;;;;;;27.48;14.77;;;;;;;2.41;81.04;102341.59;5093283;28;20028;-75
2023/03/02 09:59:24;;;;;;;29.20;13.80;;;;;;;2.48;80.09;102337.53;5077578;28;20488;-77
2023/03/02 10:02:03;;;;;;;26.67;14.90;;;;;;;2.56;78.67;102324.09;5077423;28;20039;-75
2023/03/02 10:04:35;;;;;;;26.48;13.60;;;;;;;2.59;77.54;102318.16;5064603;28;20032;-74
2023/03/02 10:07:12;;;;;;;30.83;14.00;;;;;;;2.74;76.98;102330.66;5066959;28;20031;-74
2023/03/02 10:09:38;;;;;;;27.65;14.73;;;;;;;2.83;76.52;102327.50;5071245;28;20024;-74
2023/03/02 10:12:13;;;;;;;30.08;13.77;;;;;;;2.97;76.30;102321.97;5067198;28;20399;-74
2023/03/02 10:14:46;;;;;;;25.58;13.57;;;;;;;3.10;74.47;102332.66;5089199;28;20490;-74
2023/03/02 10:17:20;;;;;;;25.52;12.90;;;;;;;3.15;71.49;102328.53;5087268;28;20379;-74
2023/03/02 10:19:53;;;;;;;24.63;13.63;;;;;;;3.17;69.76;102324.28;5087700;28;20051;-74
2023/03/02 10:22:37;;;;;;;23.40;12.38;;;;;;;3.28;70.59;102328.94;5093544;28;20483;-74
2023/03/02 10:25:25;;;;;;;26.88;12.30;;;;;;;3.39;67.83;102329.25;5094224;28;20027;-74
2023/03/02 10:28:07;;;;;;;23.10;12.75;;;;;;;3.44;67.63;102326.81;5078620;28;20028;-74
2023/03/02 10:30:35;;;;;;;25.60;12.98;;;;;;;3.50;66.85;102325.31;5084774;28;20028;-74
2023/03/02 10:33:08;;;;;;;24.33;12.85;;;;;;;3.60;66.72;102321.28;5077677;28;20032;-75
2023/03/02 10:35:37;;;;;;;23.97;12.57;;;;;;;3.70;65.46;102322.44;5076096;28;20028;-74
2023/03/02 10:38:20;;;;;;;25.30;13.13;;;;;;;3.80;65.57;102320.97;5074401;28;20074;-74
2023/03/02 10:40:46;;;;;;;22.40;11.90;;;;;;;3.92;64.92;102316.13;5082089;28;20061;-74
2023/03/02 10:43:26;;;;;;;25.00;13.20;;;;;;;4.02;66.01;102318.13;5086135;28;20063;-74
2023/03/02 10:46:17;;;;;;;26.00;13.45;;;;;;;4.14;64.38;102317.59;5076150;28;20463;-74
2023/03/02 10:48:55;;;;;;;25.33;12.88;;;;;;;4.17;63.97;102309.94;5078148;28;20196;-74
2023/03/02 10:51:24;;;;;;;25.33;13.20;;;;;;;4.28;64.06;102302.47;5080864;28;20478;-74
2023/03/02 10:53:49;;;;;;;21.83;12.38;;;;;;;4.38;61.23;102309.59;5077739;28;20108;-74
2023/03/02 10:56:20;;;;;;;21.95;12.25;;;;;;;4.42;60.82;102303.72;5077806;28;20161;-74
2023/03/02 10:58:46;;;;;;;20.83;12.10;;;;;;;4.46;61.04;102310.69;5090884;28;20119;-74
2023/03/02 11:01:17;;;;;;;23.38;12.52;;;;;;;4.54;59.48;102311.75;5084757;28;20444;-74
2023/03/02 11:03:55;;;;;;;25.00;12.10;;;;;;;4.63;60.54;102303.34;5072891;28;20480;-74
2023/03/02 11:06:23;;;;;;;20.65;11.70;;;;;;;4.77;58.98;102299.38;5087159;28;20395;-74
2023/03/02 11:09:00;;;;;;;40.47;17.17;;;;;;;4.89;60.33;102291.91;5074550;28;20500;-74
2023/03/02 11:11:26;;;;;;;22.30;11.73;;;;;;;4.98;59.47;102288.69;5076943;28;20024;-74
2023/03/02 11:13:51;;;;;;;22.38;12.73;;;;;;;5.11;59.28;102295.00;5079616;28;20023;-74